Time;durP1;ratioP1;P1;durP2;ratioP2;P2;SDS_P1;SDS_P2;PMS_P1;PMS_P2;Temp;Humidity;BMP_temperature;BMP_pressure;BME280_temperature;BME280_humidity;BME280_pressure;Samples;Min_cycle;Max_cycle;Signal;HPM_P1;HPM_P2
2023/02/03 00:00:45;;;;;;;2.77;1.23;;;4.30;99.90;;;;;;5005507;28;20455;-59
2023/02/03 00:03:11;;;;;;;3.43;1.30;;;4.20;99.90;;;;;;5003656;28;20462;-59
2023/02/03 00:05:37;;;;;;;2.03;1.30;;;4.20;99.90;;;;;;5015399;28;20430;-59
2023/02/03 00:08:05;;;;;;;1.40;1.30;;;4.20;99.90;;;;;;5009602;28;20190;-60
2023/02/03 00:10:33;;;;;;;1.53;1.30;;;4.20;99.90;;;;;;5014761;28;20457;-59
2023/02/03 00:12:59;;;;;;;1.57;1.10;;;4.20;99.90;;;;;;5006900;28;20443;-59
2023/02/03 00:15:25;;;;;;;1.20;1.10;;;4.20;99.90;;;;;;5006422;28;20435;-62
2023/02/03 00:17:51;;;;;;;1.27;1.13;;;4.20;99.90;;;;;;4999495;28;20268;-59
2023/02/03 00:20:17;;;;;;;2.90;1.63;;;4.10;99.90;;;;;;4999042;28;20526;-60
2023/02/03 00:22:42;;;;;;;1.50;1.40;;;4.10;99.90;;;;;;4998727;28;20647;-59
2023/02/03 00:25:08;;;;;;;1.93;1.47;;;4.10;99.90;;;;;;5006396;28;20306;-59
2023/02/03 00:27:33;;;;;;;3.10;2.07;;;4.10;99.90;;;;;;5007475;28;20181;-59
2023/02/03 00:29:59;;;;;;;3.87;1.80;;;4.10;99.90;;;;;;5011573;28;20191;-60
2023/02/03 00:32:25;;;;;;;1.37;1.27;;;4.10;99.90;;;;;;5004260;28;20256;-59
2023/02/03 00:34:50;;;;;;;12.43;1.70;;;4.10;99.90;;;;;;5009553;28;20238;-59
2023/02/03 00:37:16;;;;;;;1.40;1.30;;;4.00;99.90;;;;;;5009761;28;20180;-59
2023/02/03 00:39:41;;;;;;;2.87;2.00;;;4.10;99.90;;;;;;5015520;28;20172;-59
2023/02/03 00:42:07;;;;;;;1.60;1.50;;;4.00;99.90;;;;;;5011728;28;20570;-59
2023/02/03 00:44:32;;;;;;;1.70;1.60;;;4.00;99.90;;;;;;5008776;28;20234;-60
2023/02/03 00:46:58;;;;;;;3.63;1.93;;;4.00;99.90;;;;;;5010775;28;20172;-59
2023/02/03 00:49:24;;;;;;;2.67;1.53;;;4.00;99.90;;;;;;5014189;28;20179;-59
2023/02/03 00:51:50;;;;;;;2.53;1.80;;;4.00;99.90;;;;;;5007900;28;20453;-60
2023/02/03 00:54:16;;;;;;;2.10;1.57;;;4.00;99.90;;;;;;5009020;28;20181;-60
2023/02/03 00:56:41;;;;;;;7.03;1.77;;;3.90;99.90;;;;;;5010451;28;20215;-59
2023/02/03 00:59:07;;;;;;;1.60;1.50;;;3.90;99.90;;;;;;5005711;28;20199;-59
2023/02/03 01:01:34;;;;;;;2.00;1.50;;;3.90;99.90;;;;;;5007975;28;20584;-60
2023/02/03 01:03:59;;;;;;;1.70;1.60;;;3.90;99.90;;;;;;5006961;28;20204;-59
2023/02/03 01:06:25;;;;;;;1.60;1.50;;;3.90;99.90;;;;;;5009002;28;20451;-60
2023/02/03 01:08:51;;;;;;;5.53;1.70;;;3.90;99.90;;;;;;5009153;28;20646;-60
2023/02/03 01:11:20;;;;;;;4.10;2.17;;;3.90;99.90;;;;;;5006444;28;20451;-59
2023/02/03 01:13:46;;;;;;;1.57;1.13;;;3.90;99.90;;;;;;5009934;28;20186;-59
2023/02/03 01:16:14;;;;;;;8.53;1.60;;;3.90;99.90;;;;;;5007099;28;20531;-59
2023/02/03 01:18:40;;;;;;;1.93;1.70;;;3.90;99.90;;;;;;5002792;28;20437;-60
2023/02/03 01:21:09;;;;;;;3.07;2.10;;;3.90;99.90;;;;;;5006123;28;20517;-59
2023/02/03 01:23:35;;;;;;;6.57;2.97;;;3.90;99.90;;;;;;5012502;28;20471;-60
2023/02/03 01:26:03;;;;;;;7.40;2.97;;;3.90;99.90;;;;;;5017256;28;20430;-60
2023/02/03 01:28:29;;;;;;;7.07;2.13;;;3.90;99.90;;;;;;5006818;28;20419;-59
2023/02/03 01:30:54;;;;;;;5.20;2.23;;;3.90;99.90;;;;;;5006449;28;20555;-59
2023/02/03 01:33:20;;;;;;;7.37;2.50;;;3.90;99.90;;;;;;5006036;28;20177;-59
2023/02/03 01:35:45;;;;;;;8.67;2.50;;;3.90;99.90;;;;;;5000791;28;20230;-59
2023/02/03 01:38:11;;;;;;;8.53;3.40;;;3.90;99.90;;;;;;5022772;28;20188;-60
2023/02/03 01:40:42;;;;;;;4.03;2.20;;;3.90;99.90;;;;;;5005147;28;20788;-58
2023/02/03 01:43:09;;;;;;;5.60;1.97;;;3.90;99.90;;;;;;5006463;28;20201;-60
2023/02/03 01:45:35;;;;;;;6.50;1.87;;;4.00;99.90;;;;;;5008204;28;21109;-59
2023/02/03 01:48:01;;;;;;;9.53;1.93;;;3.90;99.90;;;;;;5006659;28;20434;-59
2023/02/03 01:50:36;;;;;;;7.17;2.47;;;4.00;99.90;;;;;;5004003;28;20283;-60
2023/02/03 01:53:07;;;;;;;3.17;2.10;;;3.90;99.90;;;;;;5006688;28;20208;-59
2023/02/03 01:55:37;;;;;;;4.73;1.90;;;3.90;99.90;;;;;;5007920;28;20438;-60
2023/02/03 01:58:26;;;;;;;3.90;1.90;;;3.90;99.90;;;;;;5010025;28;20423;-60
2023/02/03 02:00:53;;;;;;;1.30;1.20;;;3.90;99.90;;;;;;4987196;28;20452;-59
2023/02/03 02:03:22;;;;;;;1.70;1.60;;;3.90;99.90;;;;;;5007771;28;20486;-59
2023/02/03 02:06:09;;;;;;;1.60;1.50;;;3.90;99.90;;;;;;5007600;28;20431;-59
2023/02/03 02:08:35;;;;;;;3.10;1.40;;;3.90;99.90;;;;;;5001634;28;20470;-61
2023/02/03 02:11:02;;;;;;;2.30;1.50;;;3.90;99.90;;;;;;5007777;28;20453;-60
2023/02/03 02:13:30;;;;;;;5.17;1.40;;;3.90;99.90;;;;;;5011838;28;20467;-60
2023/02/03 02:16:14;;;;;;;1.77;1.60;;;3.90;99.90;;;;;;5006225;28;20428;-59
2023/02/03 02:18:39;;;;;;;1.63;1.53;;;3.90;99.90;;;;;;5004697;28;20434;-60
2023/02/03 02:21:40;;;;;;;2.83;1.40;;;3.90;99.90;;;;;;5005894;28;20525;-59
2023/02/03 02:24:30;;;;;;;1.60;1.50;;;3.90;99.90;;;;;;5000717;28;20459;-60
2023/02/03 02:27:14;;;;;;;2.47;1.43;;;3.80;99.90;;;;;;5016595;28;20434;-60
2023/02/03 02:30:00;;;;;;;2.40;1.53;;;3.80;99.90;;;;;;5009672;28;20435;-62
2023/02/03 02:32:41;;;;;;;3.53;1.60;;;3.80;99.90;;;;;;5011466;28;20443;-59
2023/02/03 02:35:27;;;;;;;1.63;1.53;;;3.80;99.90;;;;;;4996395;28;20483;-59
2023/02/03 02:38:01;;;;;;;1.97;1.63;;;3.70;99.90;;;;;;5003916;28;20967;-60
2023/02/03 02:40:52;;;;;;;1.57;1.40;;;3.70;99.90;;;;;;5012967;28;20467;-59
2023/02/03 02:43:46;;;;;;;1.20;1.10;;;3.70;99.90;;;;;;5003989;28;20549;-59
2023/02/03 02:46:18;;;;;;;3.00;1.40;;;3.70;99.90;;;;;;4991729;28;20447;-60
2023/02/03 02:48:52;;;;;;;1.53;1.43;;;3.70;99.90;;;;;;5005598;28;21648;-59
2023/02/03 02:51:21;;;;;;;2.00;1.57;;;3.60;99.90;;;;;;5004213;28;20529;-59
2023/02/03 02:53:57;;;;;;;2.17;1.27;;;3.60;99.90;;;;;;5003632;28;20925;-59
2023/02/03 02:56:25;;;;;;;4.50;1.40;;;3.60;99.90;;;;;;5007361;28;20465;-60
2023/02/03 02:58:53;;;;;;;3.80;1.53;;;3.60;99.90;;;;;;5015463;28;20438;-61
2023/02/03 03:01:19;;;;;;;1.57;1.40;;;3.60;99.90;;;;;;5006306;28;20593;-60
2023/02/03 03:03:45;;;;;;;1.83;1.63;;;3.60;99.90;;;;;;5004108;28;20558;-60
2023/02/03 03:06:23;;;;;;;2.70;1.80;;;3.60;99.90;;;;;;5008070;28;21052;-61
2023/02/03 03:08:57;;;;;;;4.97;1.90;;;3.60;99.90;;;;;;5014422;28;20427;-59
2023/02/03 03:11:32;;;;;;;6.53;1.50;;;3.60;99.90;;;;;;5006183;28;21223;-60
2023/02/03 03:13:59;;;;;;;2.73;1.80;;;3.70;99.90;;;;;;5007273;28;20426;-60
2023/02/03 03:16:27;;;;;;;3.43;1.50;;;3.60;99.90;;;;;;5002652;28;20435;-60
2023/02/03 03:19:17;;;;;;;4.73;1.80;;;3.60;99.90;;;;;;5009785;28;20963;-62
2023/02/03 03:21:51;;;;;;;1.90;1.57;;;3.60;99.90;;;;;;5002473;28;20450;-61
2023/02/03 03:24:23;;;;;;;2.70;2.00;;;3.60;99.90;;;;;;5003295;28;20467;-59
2023/02/03 03:26:52;;;;;;;2.03;1.73;;;3.60;99.90;;;;;;5002206;28;20432;-60
2023/02/03 03:29:29;;;;;;;2.47;1.80;;;3.60;99.90;;;;;;5004367;28;20437;-60
2023/02/03 03:31:55;;;;;;;2.60;1.50;;;3.60;99.90;;;;;;5002064;28;20467;-60
2023/02/03 03:34:21;;;;;;;5.30;1.70;;;3.50;99.90;;;;;;4998064;28;20972;-59
2023/02/03 03:37:03;;;;;;;7.53;1.80;;;3.50;99.90;;;;;;5014149;28;20476;-60
2023/02/03 03:39:58;;;;;;;2.70;1.80;;;3.50;99.90;;;;;;5008482;28;20192;-61
2023/02/03 03:42:49;;;;;;;3.67;1.90;;;3.50;99.90;;;;;;4991923;28;20493;-59
2023/02/03 03:45:27;;;;;;;1.90;1.43;;;3.40;99.90;;;;;;4999758;28;20440;-60
2023/02/03 03:47:58;;;;;;;2.70;1.50;;;3.40;99.90;;;;;;5013673;28;21124;-59
2023/02/03 03:50:30;;;;;;;4.03;1.80;;;3.40;99.90;;;;;;5002988;28;20443;-59
2023/02/03 03:53:00;;;;;;;3.47;1.83;;;3.40;99.90;;;;;;5006967;28;20444;-59
2023/02/03 03:55:30;;;;;;;1.93;1.70;;;3.40;99.90;;;;;;5009154;28;20450;-60
2023/02/03 03:58:12;;;;;;;1.70;1.53;;;3.40;99.90;;;;;;5007303;28;20963;-59
2023/02/03 04:00:40;;;;;;;4.57;1.60;;;3.40;99.90;;;;;;5010958;28;20470;-60
2023/02/03 04:03:15;;;;;;;6.43;2.10;;;3.40;99.90;;;;;;5006891;28;20459;-60
2023/02/03 04:05:41;;;;;;;5.10;2.10;;;3.40;99.90;;;;;;5004743;28;20435;-59
2023/02/03 04:08:07;;;;;;;5.73;2.30;;;3.40;99.90;;;;;;5007423;28;20458;-59
2023/02/03 04:10:38;;;;;;;2.40;1.93;;;3.40;99.90;;;;;;5007040;28;20458;-61
2023/02/03 04:13:05;;;;;;;2.60;1.93;;;3.40;99.90;;;;;;5007352;28;20177;-60
2023/02/03 04:15:31;;;;;;;6.13;1.87;;;3.40;99.90;;;;;;5007711;28;20496;-60
2023/02/03 04:17:57;;;;;;;4.30;2.27;;;3.40;99.90;;;;;;5005259;28;20480;-60
2023/02/03 04:20:23;;;;;;;8.87;2.23;;;3.40;99.90;;;;;;4999575;28;20972;-60
2023/02/03 04:22:49;;;;;;;7.23;2.27;;;3.40;99.90;;;;;;5006366;28;20209;-60
2023/02/03 04:25:15;;;;;;;3.63;2.27;;;3.40;99.90;;;;;;5004175;28;20914;-60
2023/02/03 04:27:40;;;;;;;4.77;2.50;;;3.40;99.90;;;;;;5005598;28;20441;-60
2023/02/03 04:30:07;;;;;;;7.20;2.20;;;3.40;99.90;;;;;;5011566;28;20264;-60
2023/02/03 04:32:34;;;;;;;5.10;2.70;;;3.50;99.90;;;;;;5010440;28;20267;-60
2023/02/03 04:35:00;;;;;;;5.87;1.93;;;3.50;99.90;;;;;;5008751;28;20442;-60
2023/02/03 04:37:26;;;;;;;4.10;2.47;;;3.50;99.90;;;;;;5007892;28;20608;-60
2023/02/03 04:39:52;;;;;;;9.90;3.03;;;3.50;99.90;;;;;;5010583;28;21167;-60
2023/02/03 04:42:18;;;;;;;5.50;2.30;;;3.50;99.90;;;;;;5011679;28;20196;-61
2023/02/03 04:44:44;;;;;;;7.93;2.87;;;3.50;99.90;;;;;;5005596;28;20521;-60
2023/02/03 04:47:09;;;;;;;6.30;2.50;;;3.50;99.90;;;;;;5009612;28;20169;-60
2023/02/03 04:49:35;;;;;;;4.90;2.67;;;3.50;99.90;;;;;;5010268;28;20183;-60
2023/02/03 04:52:00;;;;;;;6.70;2.70;;;3.50;99.90;;;;;;5003245;28;20642;-60
2023/02/03 04:54:26;;;;;;;19.33;2.90;;;3.50;99.90;;;;;;5004016;28;20177;-60
2023/02/03 04:56:51;;;;;;;6.47;2.93;;;3.40;99.90;;;;;;5002656;28;20205;-55
2023/02/03 04:59:17;;;;;;;4.73;2.30;;;3.50;99.90;;;;;;5006364;28;20619;-60
2023/02/03 05:01:43;;;;;;;7.43;2.73;;;3.50;99.90;;;;;;5004747;28;20673;-56
2023/02/03 05:04:08;;;;;;;3.03;2.30;;;3.50;99.90;;;;;;5003582;28;20259;-60
2023/02/03 05:06:34;;;;;;;6.20;2.90;;;3.50;99.90;;;;;;5008618;28;20255;-60
2023/02/03 05:09:00;;;;;;;6.43;2.60;;;3.60;99.90;;;;;;5008200;28;20165;-60
2023/02/03 05:11:25;;;;;;;14.87;2.80;;;3.50;99.90;;;;;;5004899;28;20202;-59
2023/02/03 05:13:53;;;;;;;7.77;2.70;;;3.50;99.90;;;;;;5004395;28;20310;-60
2023/02/03 05:16:19;;;;;;;6.90;2.93;;;3.50;99.90;;;;;;5006242;28;20203;-61
2023/02/03 05:18:45;;;;;;;5.40;3.00;;;3.50;99.90;;;;;;5012502;28;20432;-60
2023/02/03 05:21:10;;;;;;;5.37;2.67;;;3.50;99.90;;;;;;5015528;28;20898;-61
2023/02/03 05:23:36;;;;;;;6.07;2.97;;;3.50;99.90;;;;;;5004781;28;20208;-61
2023/02/03 05:26:01;;;;;;;5.03;3.57;;;3.50;99.90;;;;;;5008631;28;20184;-60
2023/02/03 05:28:27;;;;;;;9.70;2.90;;;3.50;99.90;;;;;;5001930;28;20196;-63
2023/02/03 05:30:52;;;;;;;8.20;3.13;;;3.40;99.90;;;;;;4995412;28;20630;-60
2023/02/03 05:33:18;;;;;;;13.03;2.77;;;3.40;99.90;;;;;;5008136;28;20271;-60
2023/02/03 05:35:44;;;;;;;5.43;3.10;;;3.40;99.90;;;;;;5004704;28;20669;-60
2023/02/03 05:38:09;;;;;;;5.90;2.50;;;3.50;99.90;;;;;;5008113;28;20202;-62
2023/02/03 05:43:19;;;;;;;9.27;2.37;;;3.40;99.90;;;;;;5005373;28;20206;-59
2023/02/03 05:45:45;;;;;;;6.13;2.80;;;3.40;99.90;;;;;;5003724;28;20435;-59
2023/02/03 05:48:11;;;;;;;7.10;4.13;;;3.40;99.90;;;;;;5005130;28;20207;-60
2023/02/03 05:50:37;;;;;;;9.20;2.87;;;3.40;99.90;;;;;;5003575;28;20196;-59
2023/02/03 05:53:05;;;;;;;3.30;2.40;;;3.40;99.90;;;;;;5011986;28;20952;-59
2023/02/03 05:55:31;;;;;;;3.90;2.57;;;3.40;99.90;;;;;;5007421;28;20562;-59
2023/02/03 05:57:57;;;;;;;10.80;2.90;;;3.40;99.90;;;;;;5002300;28;20491;-59
2023/02/03 06:00:22;;;;;;;13.40;3.30;;;3.30;99.90;;;;;;5006390;28;20569;-60
2023/02/03 06:02:57;;;;;;;9.00;3.20;;;3.30;99.90;;;;;;5004669;28;20794;-59
2023/02/03 06:05:23;;;;;;;10.40;3.27;;;3.30;99.90;;;;;;5004693;28;20258;-60
2023/02/03 06:07:50;;;;;;;7.90;3.13;;;3.30;99.90;;;;;;5006210;28;20434;-59
2023/02/03 06:10:16;;;;;;;7.80;2.70;;;3.30;99.90;;;;;;4994825;28;20452;-61
2023/02/03 06:12:42;;;;;;;10.20;2.90;;;3.30;99.90;;;;;;5004614;28;20462;-59
2023/02/03 06:15:09;;;;;;;6.57;3.17;;;3.30;99.90;;;;;;5004898;28;22030;-61
2023/02/03 06:17:35;;;;;;;4.03;2.53;;;3.30;99.90;;;;;;5004604;28;20443;-61
2023/02/03 06:20:06;;;;;;;10.70;3.83;;;3.30;99.90;;;;;;5003541;28;20500;-60
2023/02/03 06:22:31;;;;;;;8.33;2.87;;;3.30;99.90;;;;;;5014234;28;20469;-60
2023/02/03 06:24:57;;;;;;;5.80;2.67;;;3.30;99.90;;;;;;4999507;28;20428;-60
2023/02/03 06:27:23;;;;;;;7.60;3.53;;;3.30;99.90;;;;;;5004324;28;20672;-59
2023/02/03 06:29:49;;;;;;;8.73;2.93;;;3.30;99.90;;;;;;5010921;28;20180;-59
2023/02/03 06:32:14;;;;;;;5.40;2.90;;;3.30;99.90;;;;;;5009892;28;20263;-60
2023/02/03 06:34:40;;;;;;;4.30;2.30;;;3.30;99.90;;;;;;5006557;28;21030;-60
2023/02/03 06:37:06;;;;;;;5.27;2.87;;;3.30;99.90;;;;;;4994200;28;20511;-59
2023/02/03 06:39:31;;;;;;;7.00;2.83;;;3.30;99.90;;;;;;4995686;28;20682;-61
2023/02/03 06:41:57;;;;;;;5.37;3.00;;;3.30;99.90;;;;;;5000987;28;20206;-61
2023/02/03 06:44:22;;;;;;;9.43;2.97;;;3.30;99.90;;;;;;5004546;28;20208;-61
2023/02/03 06:46:49;;;;;;;12.60;2.70;;;3.30;99.90;;;;;;5008143;28;20195;-61
2023/02/03 06:49:16;;;;;;;3.97;3.20;;;3.30;99.90;;;;;;5001427;28;20176;-61
2023/02/03 06:51:43;;;;;;;4.30;2.60;;;3.30;99.90;;;;;;4995445;28;20479;-61
2023/02/03 06:54:10;;;;;;;2.90;2.50;;;3.30;99.90;;;;;;4997470;28;20832;-61
2023/02/03 06:56:36;;;;;;;9.03;3.00;;;3.40;99.90;;;;;;5003030;28;20456;-61
2023/02/03 06:59:01;;;;;;;8.03;2.50;;;3.40;99.90;;;;;;5005258;28;20432;-60
2023/02/03 07:01:28;;;;;;;2.90;2.07;;;3.40;99.90;;;;;;4995290;28;20251;-60
2023/02/03 07:03:56;;;;;;;6.33;2.80;;;3.40;99.90;;;;;;4996241;28;20200;-61
2023/02/03 07:06:23;;;;;;;2.87;2.37;;;3.40;99.90;;;;;;5002365;28;20431;-60
2023/02/03 07:08:48;;;;;;;4.10;2.40;;;3.40;99.90;;;;;;5006831;28;20431;-61
2023/02/03 07:11:14;;;;;;;4.90;2.50;;;3.40;99.90;;;;;;5003073;28;20451;-60
2023/02/03 07:13:39;;;;;;;5.13;2.40;;;3.40;99.90;;;;;;5014481;28;20222;-60
2023/02/03 07:16:05;;;;;;;3.43;2.60;;;3.40;99.90;;;;;;5016474;28;20187;-61
2023/02/03 07:18:31;;;;;;;2.83;2.10;;;3.40;99.90;;;;;;4997886;28;20268;-61
2023/02/03 07:20:57;;;;;;;5.43;2.67;;;3.40;99.90;;;;;;5005744;28;20529;-62
2023/02/03 07:23:22;;;;;;;6.43;3.10;;;3.30;99.90;;;;;;5002474;28;20227;-60
2023/02/03 07:25:48;;;;;;;6.67;3.10;;;3.30;99.90;;;;;;5013300;28;20195;-60
2023/02/03 07:28:14;;;;;;;9.03;2.80;;;3.30;99.90;;;;;;5004300;28;20169;-60
2023/02/03 07:30:39;;;;;;;5.50;2.80;;;3.30;99.90;;;;;;5002457;28;20622;-60
2023/02/03 07:33:06;;;;;;;15.17;3.60;;;3.30;99.90;;;;;;5004555;28;20193;-60
2023/02/03 07:35:32;;;;;;;9.70;3.30;;;3.30;99.90;;;;;;5010480;28;20226;-61
2023/02/03 07:37:58;;;;;;;4.90;2.77;;;3.30;99.90;;;;;;5006247;28;20414;-61
2023/02/03 07:40:23;;;;;;;4.10;2.70;;;3.30;99.90;;;;;;5001076;28;20191;-61
2023/02/03 07:42:49;;;;;;;12.60;3.00;;;3.40;99.90;;;;;;5001915;28;20193;-61
2023/02/03 07:45:16;;;;;;;2.83;2.50;;;3.40;99.90;;;;;;5000385;28;20230;-60
2023/02/03 07:47:42;;;;;;;5.97;3.10;;;3.40;99.90;;;;;;5004061;28;20719;-60
2023/02/03 07:50:09;;;;;;;5.13;3.10;;;3.40;99.90;;;;;;5001491;28;20439;-60
2023/02/03 07:52:35;;;;;;;8.03;3.40;;;3.40;99.90;;;;;;4999682;28;20427;-61
2023/02/03 07:55:01;;;;;;;3.73;2.70;;;3.40;99.90;;;;;;5001740;28;20422;-60
2023/02/03 07:57:27;;;;;;;5.93;3.00;;;3.50;99.90;;;;;;5004399;28;21018;-62
2023/02/03 07:59:53;;;;;;;7.30;3.03;;;3.50;99.90;;;;;;5004181;28;20531;-61
2023/02/03 08:02:18;;;;;;;5.77;2.77;;;3.60;99.90;;;;;;4998469;28;20188;-60
2023/02/03 08:04:44;;;;;;;4.07;3.03;;;3.60;99.90;;;;;;5003543;28;20180;-60
2023/02/03 08:07:10;;;;;;;7.70;2.90;;;3.60;99.90;;;;;;4999457;28;20254;-61
2023/02/03 08:09:35;;;;;;;9.53;3.10;;;3.60;99.90;;;;;;5001792;28;20200;-60
2023/02/03 08:12:01;;;;;;;5.97;2.90;;;3.60;99.90;;;;;;4999980;28;20556;-61
2023/02/03 08:14:27;;;;;;;3.40;3.10;;;3.70;99.90;;;;;;4989111;28;20183;-62
2023/02/03 08:16:52;;;;;;;5.10;3.10;;;3.70;99.90;;;;;;4997363;28;20673;-62
2023/02/03 08:19:18;;;;;;;5.60;2.60;;;3.70;99.90;;;;;;4995546;28;20180;-62
2023/02/03 08:21:43;;;;;;;2.53;2.33;;;3.80;99.90;;;;;;4989759;28;20207;-62
2023/02/03 08:24:09;;;;;;;6.10;2.57;;;3.80;99.90;;;;;;4999002;28;20196;-63
2023/02/03 08:26:36;;;;;;;4.80;3.27;;;3.80;99.90;;;;;;5009070;28;20585;-61
2023/02/03 08:29:02;;;;;;;3.63;2.03;;;3.80;99.90;;;;;;5003124;28;20169;-62
2023/02/03 08:31:28;;;;;;;9.10;4.07;;;3.90;99.90;;;;;;4994876;28;20467;-63
2023/02/03 08:33:54;;;;;;;8.00;2.73;;;3.90;99.90;;;;;;5000889;28;20443;-62
2023/02/03 08:36:19;;;;;;;5.40;3.13;;;3.90;99.90;;;;;;5006306;28;20430;-61
2023/02/03 08:38:45;;;;;;;3.43;2.30;;;3.90;99.90;;;;;;5005170;28;20184;-62
2023/02/03 08:41:14;;;;;;;4.70;3.00;;;3.90;99.90;;;;;;5004751;28;20208;-61
2023/02/03 08:43:39;;;;;;;3.97;2.60;;;3.90;99.90;;;;;;5002581;28;20223;-66
2023/02/03 08:46:07;;;;;;;6.03;2.80;;;4.00;99.90;;;;;;5001978;28;20427;-61
2023/02/03 08:48:33;;;;;;;6.47;2.40;;;4.00;99.90;;;;;;5001501;28;20177;-63
2023/02/03 08:50:59;;;;;;;4.10;2.43;;;4.00;99.90;;;;;;4995260;28;20465;-62
2023/02/03 08:53:24;;;;;;;3.73;2.33;;;4.00;99.90;;;;;;5005571;28;20530;-62
2023/02/03 08:55:50;;;;;;;3.43;2.50;;;4.10;99.90;;;;;;5006528;28;21164;-62
2023/02/03 08:58:16;;;;;;;6.50;2.67;;;4.10;99.90;;;;;;5008631;28;20180;-61
2023/02/03 09:00:42;;;;;;;6.23;2.50;;;4.10;99.90;;;;;;5008652;28;20294;-62
2023/02/03 09:03:08;;;;;;;2.97;2.33;;;4.20;99.90;;;;;;5010033;28;20215;-62
2023/02/03 09:05:34;;;;;;;5.70;2.80;;;4.20;99.90;;;;;;5009040;28;20619;-62
2023/02/03 09:07:59;;;;;;;4.63;2.30;;;4.20;99.90;;;;;;5008713;28;20572;-62
2023/02/03 09:10:25;;;;;;;4.63;2.70;;;4.20;99.90;;;;;;5002744;28;20532;-61
2023/02/03 09:12:51;;;;;;;7.30;2.57;;;4.30;99.90;;;;;;5002651;28;20222;-61
2023/02/03 09:15:16;;;;;;;10.63;2.33;;;4.30;99.90;;;;;;4998838;28;20181;-62
2023/02/03 09:17:42;;;;;;;3.07;2.10;;;4.30;99.90;;;;;;5003659;28;20188;-61
2023/02/03 09:20:08;;;;;;;4.60;2.23;;;4.40;99.90;;;;;;5006837;28;20662;-61
2023/02/03 09:22:34;;;;;;;2.70;2.30;;;4.40;99.90;;;;;;5005323;28;20208;-62
2023/02/03 09:25:00;;;;;;;3.90;2.27;;;4.40;99.90;;;;;;5003462;28;21115;-61
2023/02/03 09:27:25;;;;;;;5.27;2.30;;;4.40;99.90;;;;;;5007733;28;20173;-60
2023/02/03 09:29:51;;;;;;;10.23;2.30;;;4.50;99.90;;;;;;4995853;28;20431;-61
2023/02/03 09:32:17;;;;;;;3.83;2.30;;;4.50;99.90;;;;;;5015609;28;20196;-62
2023/02/03 09:34:42;;;;;;;5.63;2.03;;;4.50;99.90;;;;;;5002138;28;20263;-61
2023/02/03 09:37:08;;;;;;;4.13;2.50;;;4.60;99.90;;;;;;5004150;28;20997;-61
2023/02/03 09:39:34;;;;;;;5.43;2.20;;;4.60;99.90;;;;;;4998245;28;20176;-61
2023/02/03 09:42:24;;;;;;;3.63;2.53;;;4.60;99.90;;;;;;5003526;28;20483;-61
2023/02/03 09:44:59;;;;;;;5.23;3.30;;;4.70;99.90;;;;;;4999134;28;20200;-61
2023/02/03 09:47:28;;;;;;;3.13;2.43;;;4.70;99.90;;;;;;4999540;28;20531;-62
2023/02/03 09:50:04;;;;;;;4.73;2.43;;;4.80;99.90;;;;;;4999228;28;20438;-61
2023/02/03 09:52:38;;;;;;;2.70;1.90;;;4.80;99.90;;;;;;4998289;28;20958;-62
2023/02/03 09:55:23;;;;;;;2.90;2.17;;;4.90;99.90;;;;;;4994755;28;21122;-62
2023/02/03 09:58:04;;;;;;;5.23;2.00;;;5.00;99.90;;;;;;4998974;28;20430;-61
2023/02/03 10:00:35;;;;;;;3.50;1.80;;;5.10;99.90;;;;;;4990853;28;20478;-60
2023/02/03 10:03:23;;;;;;;4.33;2.20;;;5.10;99.90;;;;;;4997621;28;20467;-61
2023/02/03 10:05:54;;;;;;;5.37;2.03;;;5.20;99.90;;;;;;5006083;28;20513;-60
2023/02/03 10:08:41;;;;;;;6.10;1.83;;;5.30;99.30;;;;;;4995108;28;20431;-62
2023/02/03 10:11:38;;;;;;;12.30;1.90;;;5.40;99.50;;;;;;4996617;28;20594;-61
2023/02/03 10:14:13;;;;;;;1.60;1.50;;;5.50;98.60;;;;;;5002406;28;20436;-61
2023/02/03 10:17:29;;;;;;;1.90;1.53;;;5.50;97.10;;;;;;5001222;28;20434;-61
2023/02/03 10:20:05;;;;;;;1.80;1.70;;;5.60;98.30;;;;;;4992393;28;20435;-61
2023/02/03 10:22:40;;;;;;;5.33;2.50;;;5.60;99.90;;;;;;5002644;28;20435;-61
2023/02/03 10:25:14;;;;;;;1.70;1.60;;;5.70;99.90;;;;;;4991201;28;20431;-60
2023/02/03 10:27:42;;;;;;;1.97;1.80;;;5.80;99.40;;;;;;4993680;28;20484;-61
2023/02/03 10:30:21;;;;;;;2.00;1.60;;;5.90;97.50;;;;;;5001755;28;20453;-61
2023/02/03 10:33:15;;;;;;;1.77;1.67;;;6.00;96.70;;;;;;5007599;28;21038;-60
2023/02/03 10:36:02;;;;;;;4.67;1.70;;;6.10;97.20;;;;;;5003032;28;20472;-60
2023/02/03 10:39:01;;;;;;;2.40;1.60;;;6.30;97.50;;;;;;5001584;28;21179;-60
2023/02/03 10:41:30;;;;;;;1.87;1.70;;;6.30;95.20;;;;;;5003810;28;20448;-61
2023/02/03 10:43:57;;;;;;;5.90;2.03;;;6.40;93.80;;;;;;5011471;28;20459;-60
2023/02/03 10:46:33;;;;;;;2.80;2.00;;;6.40;93.70;;;;;;5009450;28;20423;-60
2023/02/03 10:48:59;;;;;;;3.20;1.97;;;6.40;93.30;;;;;;4999573;28;20434;-62
2023/02/03 10:51:29;;;;;;;9.20;1.60;;;6.40;94.00;;;;;;5003985;28;20465;-62
2023/02/03 10:53:54;;;;;;;5.70;2.27;;;6.50;92.20;;;;;;4997985;28;20184;-61
2023/02/03 10:56:30;;;;;;;6.43;1.67;;;6.40;92.80;;;;;;5004186;28;20441;-61
2023/02/03 10:58:58;;;;;;;1.80;1.40;;;6.40;91.00;;;;;;5013867;28;20180;-60
2023/02/03 11:01:47;;;;;;;1.83;1.40;;;6.30;90.40;;;;;;4997147;28;20850;-61
2023/02/03 11:04:32;;;;;;;2.33;2.00;;;6.20;90.30;;;;;;4998622;28;20466;-60
2023/02/03 11:07:19;;;;;;;3.00;1.40;;;6.10;90.80;;;;;;5001407;28;20427;-60
2023/02/03 11:09:45;;;;;;;4.37;1.73;;;6.10;91.50;;;;;;5012673;28;20434;-60
2023/02/03 11:12:14;;;;;;;3.00;1.83;;;6.00;91.30;;;;;;5009186;28;20466;-61
2023/02/03 11:14:52;;;;;;;1.90;1.80;;;6.00;91.40;;;;;;5006130;28;20184;-60
2023/02/03 11:17:25;;;;;;;2.40;1.17;;;6.00;91.00;;;;;;5010710;28;20426;-60
2023/02/03 11:20:01;;;;;;;1.30;1.20;;;5.90;91.40;;;;;;5008287;28;20438;-60
2023/02/03 11:22:37;;;;;;;1.60;1.50;;;5.90;90.80;;;;;;5007838;28;20475;-60
2023/02/03 11:25:16;;;;;;;1.00;1.00;;;6.00;90.60;;;;;;5006494;28;20506;-60
2023/02/03 11:27:42;;;;;;;3.17;1.77;;;6.00;88.80;;;;;;4995790;28;20439;-59
2023/02/03 11:30:23;;;;;;;1.47;1.37;;;6.00;89.40;;;;;;5002111;28;20424;-60
2023/02/03 11:32:51;;;;;;;1.20;1.00;;;6.00;88.50;;;;;;5013119;28;20457;-59
2023/02/03 11:35:18;;;;;;;1.20;1.10;;;6.00;90.20;;;;;;4994201;28;20435;-62
2023/02/03 11:37:50;;;;;;;2.50;1.57;;;6.10;88.60;;;;;;5011155;28;20451;-60
2023/02/03 11:40:16;;;;;;;1.20;1.10;;;6.10;86.70;;;;;;5004803;28;20538;-61
2023/02/03 11:43:04;;;;;;;1.37;0.90;;;6.20;84.30;;;;;;5003567;28;20779;-60
2023/02/03 11:45:40;;;;;;;1.60;0.97;;;6.20;82.40;;;;;;5003934;28;20434;-61
2023/02/03 11:48:15;;;;;;;1.30;1.20;;;6.20;78.50;;;;;;5001605;28;20429;-60
2023/02/03 11:51:02;;;;;;;1.47;0.90;;;6.10;78.70;;;;;;4997853;28;21088;-60
2023/02/03 11:53:42;;;;;;;1.00;1.00;;;6.10;78.10;;;;;;4996614;28;20440;-62
2023/02/03 11:56:10;;;;;;;0.90;0.90;;;6.10;76.70;;;;;;4997078;28;20445;-61
2023/02/03 11:58:53;;;;;;;0.93;0.90;;;6.20;76.60;;;;;;4995968;28;20567;-61
2023/02/03 12:01:27;;;;;;;1.60;1.10;;;6.20;77.60;;;;;;4996763;28;20451;-61
2023/02/03 12:04:24;;;;;;;0.83;0.83;;;6.20;76.80;;;;;;5000190;28;20545;-61
2023/02/03 12:07:14;;;;;;;0.80;0.80;;;6.30;75.40;;;;;;5009957;28;20431;-62
2023/02/03 12:09:48;;;;;;;2.20;1.00;;;6.20;75.60;;;;;;4991571;28;20528;-61
2023/02/03 12:12:32;;;;;;;1.10;1.00;;;6.30;76.60;;;;;;5003527;28;22245;-61
2023/02/03 12:15:01;;;;;;;1.20;1.10;;;6.40;77.20;;;;;;4990226;28;20454;-60
2023/02/03 12:17:52;;;;;;;0.97;0.97;;;6.40;76.50;;;;;;4996603;28;20948;-60
2023/02/03 12:20:27;;;;;;;0.80;0.80;;;6.50;73.20;;;;;;5003469;28;20454;-59
2023/02/03 12:23:03;;;;;;;1.03;0.90;;;6.40;72.10;;;;;;5008303;28;20468;-59
2023/02/03 12:26:01;;;;;;;0.87;0.87;;;6.40;71.70;;;;;;5003476;28;20454;-61
2023/02/03 12:28:45;;;;;;;1.07;1.00;;;6.40;70.40;;;;;;4982637;28;20436;-61
2023/02/03 12:31:31;;;;;;;0.90;0.90;;;6.40;71.00;;;;;;5001600;28;20526;-61
2023/02/03 12:34:17;;;;;;;1.07;0.80;;;6.50;71.10;;;;;;5007881;28;20434;-62
2023/02/03 12:36:52;;;;;;;1.07;0.97;;;6.50;71.20;;;;;;5001778;28;20469;-61
2023/02/03 12:39:28;;;;;;;1.10;1.00;;;6.50;70.70;;;;;;4995023;28;20444;-62
2023/02/03 12:42:00;;;;;;;1.23;1.13;;;6.60;70.70;;;;;;5003355;28;20489;-62
2023/02/03 12:44:37;;;;;;;0.70;0.70;;;6.60;70.40;;;;;;5007914;28;20490;-62
2023/02/03 12:47:21;;;;;;;1.43;0.90;;;6.60;69.00;;;;;;5023470;28;21134;-61
2023/02/03 12:49:51;;;;;;;1.10;1.00;;;6.60;69.10;;;;;;5014189;28;20442;-62
2023/02/03 12:52:23;;;;;;;1.30;1.10;;;6.60;69.90;;;;;;5003473;28;20463;-61
2023/02/03 12:54:55;;;;;;;1.10;1.10;;;6.60;69.90;;;;;;5003910;28;20498;-61
2023/02/03 12:57:34;;;;;;;1.50;0.90;;;6.70;69.40;;;;;;5012074;28;20431;-62
2023/02/03 13:00:28;;;;;;;1.20;1.10;;;6.70;67.70;;;;;;5017545;28;20422;-60
2023/02/03 13:03:15;;;;;;;0.90;0.90;;;6.70;66.50;;;;;;5001740;28;20463;-62
2023/02/03 13:05:58;;;;;;;0.90;0.90;;;6.60;66.00;;;;;;5000962;28;20458;-62
2023/02/03 13:08:38;;;;;;;4.33;1.10;;;6.60;66.00;;;;;;5009422;28;20807;-61
2023/02/03 13:11:23;;;;;;;1.03;0.93;;;6.60;66.00;;;;;;5008769;28;20446;-62
2023/02/03 13:13:55;;;;;;;1.23;1.13;;;6.60;66.20;;;;;;5011119;28;20985;-61
2023/02/03 13:16:27;;;;;;;1.20;1.10;;;6.50;65.90;;;;;;5003755;28;20629;-61
2023/02/03 13:19:02;;;;;;;1.30;1.20;;;6.50;66.30;;;;;;5010157;28;20466;-61